Time;durP1;ratioP1;P1;durP2;ratioP2;P2;SDS_P1;SDS_P2;PMS_P1;PMS_P2;Temp;Humidity;BMP_temperature;BMP_pressure;BME280_temperature;BME280_humidity;BME280_pressure;Samples;Min_cycle;Max_cycle;Signal;HPM_P1;HPM_P2
2023/01/29 00:02:05;;;;;;;13.85;9.73;;;5.70;99.90;;;;;;4941062;28;91186;-77
2023/01/29 00:04:33;;;;;;;16.58;11.00;;;5.70;99.90;;;;;;4959235;28;89023;-77
2023/01/29 00:07:00;;;;;;;14.80;10.95;;;5.70;99.90;;;;;;4940915;28;89248;-77
2023/01/29 00:09:28;;;;;;;15.85;11.07;;;5.70;99.90;;;;;;4958567;28;88467;-77
2023/01/29 00:11:55;;;;;;;14.80;10.88;;;5.70;99.90;;;;;;4958703;28;88559;-77
2023/01/29 00:14:22;;;;;;;15.13;11.63;;;5.70;99.90;;;;;;4958555;28;89399;-77
2023/01/29 00:16:49;;;;;;;18.45;11.98;;;5.70;99.90;;;;;;4940738;28;91510;-77
2023/01/29 00:19:16;;;;;;;15.15;10.07;;;5.70;99.90;;;;;;4940951;28;90900;-77
2023/01/29 00:21:43;;;;;;;17.30;10.57;;;5.70;99.90;;;;;;4957207;28;89066;-77
2023/01/29 00:24:11;;;;;;;14.50;10.98;;;5.80;99.90;;;;;;4958648;28;89706;-77
2023/01/29 00:26:38;;;;;;;17.92;12.25;;;5.80;99.90;;;;;;4956674;28;92033;-77
2023/01/29 00:29:06;;;;;;;15.52;11.20;;;5.80;99.90;;;;;;4958397;28;88562;-77
2023/01/29 00:31:33;;;;;;;18.70;10.93;;;5.80;99.90;;;;;;4940249;28;91914;-77
2023/01/29 00:34:00;;;;;;;18.52;11.98;;;5.80;99.90;;;;;;4956932;28;88548;-77
2023/01/29 00:36:27;;;;;;;16.42;12.00;;;5.80;99.90;;;;;;4957007;28;89050;-77
2023/01/29 00:38:57;;;;;;;18.02;12.02;;;5.80;99.90;;;;;;4940548;28;90982;-77
2023/01/29 00:47:03;;;;;;;18.83;12.98;;;5.80;99.90;;;;;;4958129;28;88492;-77
2023/01/29 00:49:30;;;;;;;19.52;12.52;;;5.80;99.90;;;;;;4940790;28;90197;-77
2023/01/29 00:54:43;;;;;;;17.40;12.35;;;5.80;99.90;;;;;;4958127;28;89485;-77
2023/01/29 00:57:12;;;;;;;18.55;13.23;;;5.80;99.90;;;;;;4940529;28;91471;-77
2023/01/29 00:59:39;;;;;;;19.10;12.88;;;5.80;99.90;;;;;;4940184;28;90655;-77
2023/01/29 01:04:52;;;;;;;16.48;13.43;;;5.80;99.90;;;;;;4956259;28;91738;-77
2023/01/29 01:07:20;;;;;;;18.20;13.48;;;5.80;99.90;;;;;;4940141;28;92077;-77
2023/01/29 01:12:33;;;;;;;17.77;13.50;;;5.80;99.90;;;;;;4957987;28;88568;-77
2023/01/29 01:15:00;;;;;;;18.40;13.27;;;5.80;99.90;;;;;;4956634;28;89327;-77
2023/01/29 01:17:27;;;;;;;19.55;13.35;;;5.80;99.90;;;;;;4956312;28;92000;-77
2023/01/29 01:19:54;;;;;;;20.38;13.65;;;5.80;99.90;;;;;;4956260;28;90029;-77
2023/01/29 01:22:21;;;;;;;17.70;13.32;;;5.80;99.90;;;;;;4957413;28;89661;-77
2023/01/29 01:24:48;;;;;;;18.35;14.18;;;5.80;99.90;;;;;;4940080;28;92325;-77
2023/01/29 01:27:15;;;;;;;18.33;14.50;;;5.90;99.90;;;;;;4957554;28;88942;-77
2023/01/29 01:29:42;;;;;;;20.30;14.07;;;5.90;99.90;;;;;;4955630;28;89913;-77
2023/01/29 01:32:09;;;;;;;20.50;14.35;;;5.90;99.90;;;;;;4940055;28;91456;-77
2023/01/29 01:34:36;;;;;;;18.35;14.45;;;5.90;99.90;;;;;;4956120;28;88552;-77
2023/01/29 01:37:03;;;;;;;18.75;14.10;;;5.90;99.90;;;;;;4956049;28;89007;-77
2023/01/29 01:39:30;;;;;;;18.10;13.23;;;5.90;99.90;;;;;;4956167;28;88831;-77
2023/01/29 01:41:57;;;;;;;16.95;13.57;;;5.90;99.90;;;;;;4956028;28;90851;-77
2023/01/29 01:45:04;;;;;;;21.30;14.13;;;5.80;99.90;;;;;;4957128;28;89341;-77
2023/01/29 01:47:31;;;;;;;17.27;13.25;;;5.90;99.90;;;;;;4955723;28;90737;-77
2023/01/29 01:50:07;;;;;;;19.58;13.98;;;5.80;99.90;;;;;;4956985;28;88557;-77
2023/01/29 01:52:37;;;;;;;17.35;13.52;;;5.80;99.90;;;;;;4957432;28;88834;-77
2023/01/29 01:55:08;;;;;;;16.33;13.45;;;5.80;99.90;;;;;;4956067;28;89441;-77
2023/01/29 01:57:35;;;;;;;19.65;13.38;;;5.80;99.90;;;;;;4955610;28;91339;-77
2023/01/29 02:00:15;;;;;;;23.85;15.30;;;5.80;99.90;;;;;;4954841;28;90955;-77
2023/01/29 02:11:25;;;;;;;20.98;14.10;;;5.80;99.90;;;;;;4955482;28;91554;-77
2023/01/29 02:13:52;;;;;;;19.42;14.45;;;5.80;99.90;;;;;;4955341;28;88811;-77
2023/01/29 02:16:25;;;;;;;22.70;14.95;;;5.80;99.90;;;;;;4956979;28;89483;-77
2023/01/29 02:18:52;;;;;;;19.05;14.98;;;5.80;99.90;;;;;;4955216;28;91895;-77
2023/01/29 02:21:28;;;;;;;18.65;14.25;;;5.90;99.90;;;;;;4956101;28;88501;-77
2023/01/29 02:24:47;;;;;;;20.02;14.88;;;5.90;99.90;;;;;;4958915;28;89137;-77
2023/01/29 02:27:23;;;;;;;21.90;14.90;;;5.90;99.90;;;;;;4936969;28;92281;-77
2023/01/29 02:30:04;;;;;;;20.25;14.68;;;5.90;99.90;;;;;;4960201;28;88785;-77
2023/01/29 02:32:40;;;;;;;19.25;15.00;;;5.90;99.90;;;;;;4958693;28;89999;-77
2023/01/29 02:35:31;;;;;;;17.88;14.05;;;5.90;99.90;;;;;;4958509;28;90372;-77
2023/01/29 02:38:19;;;;;;;18.27;13.60;;;5.90;99.90;;;;;;4958434;28;91889;-77
2023/01/29 02:41:00;;;;;;;22.50;15.70;;;5.90;99.90;;;;;;4958261;28;91806;-77
2023/01/29 02:43:51;;;;;;;21.55;15.65;;;5.90;99.90;;;;;;4958878;28;88682;-77
2023/01/29 02:46:34;;;;;;;21.10;15.40;;;5.90;99.90;;;;;;4960155;28;88769;-77
2023/01/29 02:49:09;;;;;;;20.08;15.93;;;5.90;99.90;;;;;;4941830;28;92360;-77
2023/01/29 02:51:44;;;;;;;21.50;15.25;;;5.90;99.90;;;;;;4960001;28;89101;-77
2023/01/29 02:54:31;;;;;;;22.40;16.05;;;5.90;99.90;;;;;;4941980;28;90826;-77
2023/01/29 02:57:16;;;;;;;22.27;15.68;;;5.90;99.90;;;;;;4958133;28;91359;-77
2023/01/29 02:59:59;;;;;;;23.35;15.98;;;5.90;99.90;;;;;;4957996;28;89358;-77
2023/01/29 03:02:45;;;;;;;21.70;15.15;;;5.90;99.90;;;;;;4942309;28;92008;-77
2023/01/29 03:05:17;;;;;;;22.35;15.75;;;5.90;99.90;;;;;;4959532;28;88378;-77
2023/01/29 03:07:52;;;;;;;22.25;15.45;;;5.80;99.90;;;;;;4959332;28;89673;-77
2023/01/29 03:10:51;;;;;;;23.23;16.15;;;5.80;99.90;;;;;;4958296;28;92257;-77
2023/01/29 03:13:37;;;;;;;22.63;16.57;;;5.80;99.90;;;;;;4953010;28;91140;-77
2023/01/29 03:16:23;;;;;;;20.77;15.23;;;5.80;99.90;;;;;;4957868;28;90212;-77
2023/01/29 03:18:59;;;;;;;20.77;15.35;;;5.80;99.90;;;;;;4957965;28;91092;-77
2023/01/29 03:21:58;;;;;;;20.15;15.18;;;5.80;99.90;;;;;;4959374;28;89321;-77
2023/01/29 03:34:07;;;;;;;23.17;15.60;;;5.80;99.90;;;;;;4957387;28;90444;-77
2023/01/29 03:36:55;;;;;;;20.27;14.70;;;5.80;99.90;;;;;;4957589;28;91830;-77
2023/01/29 03:39:27;;;;;;;20.80;14.98;;;5.80;99.90;;;;;;4941470;28;91182;-77
2023/01/29 03:42:16;;;;;;;18.85;15.18;;;5.70;99.90;;;;;;4957709;28;90755;-77
2023/01/29 03:45:18;;;;;;;19.77;13.68;;;5.70;99.90;;;;;;4957659;28;92085;-77
2023/01/29 03:48:00;;;;;;;22.17;14.48;;;5.80;99.90;;;;;;4941615;28;91417;-77
2023/01/29 03:50:53;;;;;;;20.50;14.60;;;5.70;99.90;;;;;;4957507;28;91249;-77
2023/01/29 03:53:35;;;;;;;20.20;14.50;;;5.70;99.90;;;;;;4957450;28;90786;-77
2023/01/29 03:56:27;;;;;;;18.65;14.45;;;5.70;99.90;;;;;;4941225;28;91665;-78
2023/01/29 03:59:10;;;;;;;20.98;15.10;;;5.80;99.90;;;;;;4957273;28;91336;-77
2023/01/29 04:02:01;;;;;;;18.40;13.80;;;5.80;99.90;;;;;;4958045;28;89249;-77
2023/01/29 04:04:37;;;;;;;21.40;14.60;;;5.80;99.90;;;;;;4957325;28;92146;-77
2023/01/29 04:07:15;;;;;;;19.15;14.50;;;5.80;99.90;;;;;;4940942;28;90471;-77
2023/01/29 04:09:50;;;;;;;23.83;16.17;;;5.80;99.90;;;;;;4957259;28;91291;-77
2023/01/29 04:12:32;;;;;;;18.08;13.57;;;5.80;99.90;;;;;;4958224;28;88678;-77
2023/01/29 04:15:01;;;;;;;20.50;14.32;;;5.90;99.90;;;;;;4957313;28;90976;-77
2023/01/29 04:17:34;;;;;;;18.48;14.10;;;5.80;99.90;;;;;;4957120;28;92045;-77
2023/01/29 04:20:10;;;;;;;18.52;14.52;;;5.80;99.90;;;;;;4957055;28;89827;-77
2023/01/29 04:22:43;;;;;;;20.00;14.77;;;5.80;99.90;;;;;;4957340;28;90896;-77
2023/01/29 04:25:14;;;;;;;22.98;15.05;;;5.80;99.90;;;;;;4956837;28;91493;-77
2023/01/29 04:27:55;;;;;;;21.48;14.70;;;5.90;99.90;;;;;;4956954;28;91818;-77
2023/01/29 04:30:34;;;;;;;20.23;14.43;;;5.90;99.90;;;;;;4956648;28;91683;-77
2023/01/29 04:33:39;;;;;;;22.30;14.90;;;5.90;99.90;;;;;;4958352;28;88626;-77
2023/01/29 04:36:31;;;;;;;21.77;14.95;;;5.90;99.90;;;;;;4956536;28;91182;-77
2023/01/29 04:38:58;;;;;;;19.65;15.77;;;5.90;99.90;;;;;;4956893;28;91793;-76
2023/01/29 04:41:53;;;;;;;20.70;14.98;;;5.90;99.90;;;;;;4956786;28;88984;-77
2023/01/29 04:44:42;;;;;;;22.55;15.57;;;5.90;99.90;;;;;;4946966;28;89723;-78
2023/01/29 04:47:08;;;;;;;22.23;15.45;;;5.90;99.90;;;;;;4958417;28;88868;-77
2023/01/29 04:50:10;;;;;;;24.65;15.10;;;5.90;99.90;;;;;;4958360;28;89368;-77
2023/01/29 04:52:46;;;;;;;20.52;15.05;;;6.00;99.90;;;;;;4956551;28;89221;-77
2023/01/29 04:55:31;;;;;;;22.58;15.55;;;5.90;99.90;;;;;;4957898;28;88520;-77
2023/01/29 04:57:58;;;;;;;22.60;15.73;;;6.00;99.90;;;;;;4956682;28;89997;-77
2023/01/29 05:00:52;;;;;;;19.67;14.27;;;5.90;99.90;;;;;;4955968;28;91973;-77
2023/01/29 05:03:23;;;;;;;22.25;15.15;;;6.00;99.90;;;;;;4956692;28;88874;-77
2023/01/29 05:05:52;;;;;;;21.55;15.82;;;5.90;99.90;;;;;;4958115;28;88455;-77
2023/01/29 05:08:23;;;;;;;21.05;15.15;;;5.90;99.90;;;;;;4956242;28;88960;-77
2023/01/29 05:10:52;;;;;;;20.65;15.45;;;6.00;99.90;;;;;;4957784;28;89539;-77
2023/01/29 05:13:21;;;;;;;21.55;15.85;;;6.00;99.90;;;;;;4957439;28;88976;-77
2023/01/29 05:16:07;;;;;;;23.35;16.45;;;6.00;99.90;;;;;;4957910;28;88510;-77
2023/01/29 05:18:35;;;;;;;20.73;15.85;;;6.00;99.90;;;;;;4957628;28;89803;-77
2023/01/29 05:21:06;;;;;;;23.40;16.15;;;6.00;99.90;;;;;;4957672;28;89333;-77
2023/01/29 05:23:33;;;;;;;22.27;15.68;;;6.00;99.90;;;;;;4957167;28;89010;-77
2023/01/29 05:26:01;;;;;;;22.30;15.07;;;6.00;99.90;;;;;;4956620;28;89006;-77
2023/01/29 05:28:28;;;;;;;23.25;16.75;;;6.00;99.90;;;;;;4955710;28;91281;-77
2023/01/29 05:30:56;;;;;;;24.88;17.02;;;6.00;99.90;;;;;;4956217;28;91760;-77
2023/01/29 05:33:29;;;;;;;24.10;16.48;;;6.00;99.90;;;;;;4957193;28;88507;-77
2023/01/29 05:35:58;;;;;;;25.50;17.20;;;6.00;99.90;;;;;;4956030;28;88907;-77
2023/01/29 05:38:25;;;;;;;22.92;17.25;;;6.00;99.90;;;;;;4957186;28;88853;-77
2023/01/29 05:40:53;;;;;;;23.48;17.20;;;6.00;99.90;;;;;;4957624;28;89517;-77
2023/01/29 05:43:24;;;;;;;25.88;17.05;;;6.00;99.90;;;;;;4939817;28;91620;-77
2023/01/29 05:45:53;;;;;;;26.45;16.85;;;6.00;99.90;;;;;;4957704;28;88402;-77
2023/01/29 05:48:20;;;;;;;24.25;18.00;;;6.00;99.90;;;;;;4956284;28;101054;-77
2023/01/29 05:50:47;;;;;;;22.23;16.95;;;6.00;99.90;;;;;;4956097;28;91982;-77
2023/01/29 05:53:14;;;;;;;26.15;17.15;;;6.00;99.90;;;;;;4957441;28;89187;-77
2023/01/29 05:55:45;;;;;;;22.90;17.90;;;6.00;99.90;;;;;;4957394;28;88519;-77
2023/01/29 05:58:13;;;;;;;24.42;17.48;;;6.00;99.90;;;;;;4960690;28;88474;-77
2023/01/29 06:00:40;;;;;;;25.45;18.92;;;6.00;99.90;;;;;;4942906;28;92097;-78
2023/01/29 06:03:07;;;;;;;23.83;17.60;;;6.00;99.90;;;;;;4959332;28;90471;-77
2023/01/29 06:05:37;;;;;;;26.42;18.48;;;6.00;99.90;;;;;;4942722;28;90943;-77
2023/01/29 06:08:05;;;;;;;25.65;18.20;;;6.00;99.90;;;;;;4960111;28;89118;-77
2023/01/29 06:10:32;;;;;;;26.00;18.92;;;6.00;99.90;;;;;;4960095;28;90189;-77
2023/01/29 06:12:59;;;;;;;25.90;18.73;;;6.00;99.90;;;;;;4959123;28;89032;-77
2023/01/29 06:15:26;;;;;;;24.75;19.80;;;6.00;99.90;;;;;;4958632;28;89936;-77
2023/01/29 06:17:53;;;;;;;28.95;19.25;;;6.00;99.90;;;;;;4960305;28;88856;-77
2023/01/29 06:20:21;;;;;;;25.92;19.23;;;6.00;99.90;;;;;;4958890;28;92078;-77
2023/01/29 06:22:48;;;;;;;26.27;19.15;;;6.00;99.90;;;;;;4959227;28;89354;-77
2023/01/29 06:25:15;;;;;;;26.85;20.08;;;6.00;99.90;;;;;;4942714;28;90710;-76
2023/01/29 06:27:42;;;;;;;30.05;20.65;;;6.00;99.90;;;;;;4958737;28;88666;-77
2023/01/29 06:30:09;;;;;;;28.05;19.77;;;6.00;99.90;;;;;;4960117;28;88494;-78
2023/01/29 06:32:36;;;;;;;29.50;20.48;;;6.00;99.90;;;;;;4959854;28;88993;-77
2023/01/29 06:35:04;;;;;;;28.17;19.27;;;6.00;99.90;;;;;;4958897;28;88768;-77
2023/01/29 06:37:31;;;;;;;26.40;20.08;;;6.00;99.90;;;;;;4942123;28;91936;-77
2023/01/29 06:39:58;;;;;;;24.42;18.77;;;6.00;99.90;;;;;;4959956;28;89499;-77
2023/01/29 06:42:26;;;;;;;30.63;20.65;;;6.00;99.90;;;;;;4958703;28;89207;-77
2023/01/29 06:44:56;;;;;;;26.73;21.15;;;6.10;99.90;;;;;;4958716;28;88594;-77
2023/01/29 06:47:25;;;;;;;26.08;21.02;;;6.10;99.90;;;;;;4959675;28;90080;-77
2023/01/29 06:49:52;;;;;;;28.70;20.67;;;6.10;99.90;;;;;;4958554;28;89436;-77
2023/01/29 06:52:19;;;;;;;26.60;19.90;;;6.10;99.90;;;;;;4959732;28;89004;-77
2023/01/29 06:54:46;;;;;;;27.77;19.70;;;6.00;99.90;;;;;;4958827;28;89077;-77
2023/01/29 06:57:13;;;;;;;26.85;20.27;;;6.10;99.90;;;;;;4959857;28;88884;-77
2023/01/29 06:59:40;;;;;;;26.88;19.67;;;6.00;99.90;;;;;;4958356;28;88575;-77
2023/01/29 07:02:08;;;;;;;24.95;18.58;;;6.00;99.90;;;;;;4942416;28;89081;-77
2023/01/29 07:04:36;;;;;;;26.05;20.10;;;6.10;99.90;;;;;;4959357;28;88609;-77
2023/01/29 07:07:04;;;;;;;26.90;20.30;;;6.10;99.90;;;;;;4941873;28;89188;-77
2023/01/29 07:09:31;;;;;;;25.90;20.13;;;6.10;99.90;;;;;;4959423;28;89162;-77
2023/01/29 07:11:58;;;;;;;23.58;18.90;;;6.10;99.90;;;;;;4958242;28;88826;-77
2023/01/29 07:14:25;;;;;;;24.10;19.05;;;6.10;99.90;;;;;;4958108;28;91117;-77
2023/01/29 07:16:52;;;;;;;26.30;20.83;;;6.10;99.90;;;;;;4958556;28;88665;-76
2023/01/29 07:19:19;;;;;;;24.52;19.08;;;6.10;99.90;;;;;;4958191;28;95518;-77
2023/01/29 07:21:46;;;;;;;25.45;20.05;;;6.10;99.90;;;;;;4957566;28;91692;-77
2023/01/29 07:24:13;;;;;;;25.67;18.63;;;6.20;99.90;;;;;;4959274;28;88382;-77
2023/01/29 07:26:40;;;;;;;26.38;20.67;;;6.10;99.90;;;;;;4958700;28;89593;-77
2023/01/29 07:29:07;;;;;;;26.67;20.25;;;6.10;99.90;;;;;;4957955;28;92453;-77
2023/01/29 07:31:34;;;;;;;24.30;19.23;;;6.10;99.90;;;;;;4957623;28;89355;-77
2023/01/29 07:34:03;;;;;;;23.13;19.17;;;6.10;99.90;;;;;;4958043;28;88732;-77
2023/01/29 07:36:30;;;;;;;23.27;18.95;;;6.10;99.90;;;;;;4957331;28;91368;-77
2023/01/29 07:38:57;;;;;;;27.98;20.67;;;6.10;99.90;;;;;;4941487;28;93327;-77
2023/01/29 07:41:24;;;;;;;24.00;19.92;;;6.20;99.90;;;;;;4957846;28;89038;-77
2023/01/29 07:43:51;;;;;;;24.38;18.85;;;6.20;99.90;;;;;;4957520;28;91233;-77
2023/01/29 07:46:17;;;;;;;24.40;19.13;;;6.20;99.90;;;;;;4958972;28;88998;-77
2023/01/29 07:48:44;;;;;;;25.98;19.67;;;6.20;99.90;;;;;;4958670;28;89447;-77
2023/01/29 07:51:11;;;;;;;26.73;20.02;;;6.20;99.90;;;;;;4957553;28;91570;-77
2023/01/29 07:53:38;;;;;;;26.10;20.17;;;6.20;99.90;;;;;;4957389;28;88506;-77
2023/01/29 07:56:06;;;;;;;22.77;17.85;;;6.20;99.90;;;;;;4941753;28;89080;-77
2023/01/29 07:58:33;;;;;;;22.63;18.42;;;6.20;99.90;;;;;;4957367;28;89575;-77
2023/01/29 08:01:06;;;;;;;25.08;19.25;;;6.20;99.90;;;;;;4958567;28;88959;-77
2023/01/29 08:03:34;;;;;;;23.52;19.55;;;6.30;99.90;;;;;;4958559;28;88387;-77
2023/01/29 08:06:02;;;;;;;24.60;19.75;;;6.30;99.90;;;;;;4957385;28;88548;-77
2023/01/29 08:08:29;;;;;;;26.08;20.90;;;6.30;99.90;;;;;;4957386;28;89349;-77
2023/01/29 08:11:00;;;;;;;28.00;20.80;;;6.30;99.90;;;;;;4958527;28;89199;-77
2023/01/29 08:13:27;;;;;;;24.60;19.83;;;6.30;99.90;;;;;;4958726;28;88509;-77
2023/01/29 08:15:59;;;;;;;24.10;18.60;;;6.40;99.90;;;;;;4956789;28;93795;-77
2023/01/29 08:18:27;;;;;;;25.10;21.05;;;6.40;99.90;;;;;;4956852;28;89754;-77
2023/01/29 08:21:01;;;;;;;26.83;20.08;;;6.40;99.90;;;;;;4957716;28;89071;-77
2023/01/29 08:23:28;;;;;;;28.77;19.90;;;6.50;99.90;;;;;;4940888;28;91139;-77
2023/01/29 08:25:55;;;;;;;24.20;19.60;;;6.50;99.90;;;;;;4958303;28;88694;-77
2023/01/29 08:28:22;;;;;;;25.27;19.63;;;6.50;99.90;;;;;;4958444;28;89702;-77
2023/01/29 08:30:49;;;;;;;25.63;19.20;;;6.50;99.90;;;;;;4956889;28;89011;-77
2023/01/29 08:33:16;;;;;;;28.15;21.10;;;6.60;99.90;;;;;;4958421;28;88455;-77
2023/01/29 08:35:52;;;;;;;28.45;20.05;;;6.60;99.90;;;;;;4956930;28;88882;-77
2023/01/29 08:38:19;;;;;;;25.23;19.63;;;6.60;99.90;;;;;;4958367;28;89464;-77
2023/01/29 08:40:46;;;;;;;25.70;20.15;;;6.70;99.90;;;;;;4957862;28;89343;-77
2023/01/29 08:43:13;;;;;;;24.85;19.23;;;6.70;99.90;;;;;;4956936;28;88447;-77
2023/01/29 08:45:42;;;;;;;22.92;19.15;;;6.80;99.90;;;;;;4957495;28;88847;-77
2023/01/29 08:48:09;;;;;;;26.45;20.27;;;6.90;99.90;;;;;;4956695;28;91874;-77
2023/01/29 08:50:36;;;;;;;25.55;19.85;;;6.90;99.90;;;;;;4958003;28;88908;-77
2023/01/29 08:53:08;;;;;;;24.27;18.35;;;7.00;99.90;;;;;;4958198;28;88973;-77
2023/01/29 08:55:36;;;;;;;26.23;20.42;;;7.00;99.90;;;;;;4958101;28;88739;-77
2023/01/29 08:58:09;;;;;;;25.67;20.02;;;7.00;99.90;;;;;;4956675;28;89414;-77
2023/01/29 09:00:37;;;;;;;27.27;19.38;;;7.00;99.90;;;;;;4956014;28;89068;-77
2023/01/29 09:03:06;;;;;;;23.30;17.98;;;7.00;99.90;;;;;;4956256;28;91051;-77
2023/01/29 09:05:37;;;;;;;27.98;20.67;;;7.00;99.90;;;;;;4956228;28;89573;-77
2023/01/29 09:08:06;;;;;;;29.60;20.73;;;7.10;99.90;;;;;;4957858;28;90396;-77
2023/01/29 09:10:34;;;;;;;25.58;20.08;;;7.10;99.90;;;;;;4940244;28;91515;-77
2023/01/29 09:13:01;;;;;;;26.63;19.85;;;7.20;99.90;;;;;;4957458;28;88469;-77
2023/01/29 09:15:28;;;;;;;23.42;18.63;;;7.20;99.90;;;;;;4957554;28;89282;-77
2023/01/29 09:17:55;;;;;;;25.10;19.45;;;7.20;99.90;;;;;;4956035;28;91945;-77
2023/01/29 09:20:22;;;;;;;25.63;20.25;;;7.20;99.90;;;;;;4940284;28;88854;-77
2023/01/29 09:22:52;;;;;;;26.25;19.27;;;7.20;99.90;;;;;;4956094;28;88507;-77
2023/01/29 09:25:19;;;;;;;24.20;19.13;;;7.30;99.90;;;;;;4940109;28;91439;-77
2023/01/29 09:27:46;;;;;;;25.27;18.67;;;7.40;99.90;;;;;;4956080;28;89590;-77
2023/01/29 09:30:13;;;;;;;26.55;19.90;;;7.40;99.90;;;;;;4955835;28;91479;-77
2023/01/29 09:32:40;;;;;;;24.27;18.55;;;7.50;99.90;;;;;;4959848;28;88960;-77
2023/01/29 09:35:23;;;;;;;27.50;20.27;;;7.60;99.90;;;;;;4960902;28;88878;-77
2023/01/29 09:37:51;;;;;;;22.63;18.40;;;7.70;99.90;;;;;;4960495;28;89525;-77
2023/01/29 09:40:42;;;;;;;24.40;17.90;;;7.70;99.90;;;;;;4942858;28;98150;-77
2023/01/29 09:43:38;;;;;;;22.75;18.05;;;7.80;99.90;;;;;;4959261;28;90152;-77
2023/01/29 09:46:45;;;;;;;24.55;18.35;;;7.90;99.90;;;;;;4952378;28;89409;-77
2023/01/29 09:49:25;;;;;;;24.90;19.15;;;7.90;99.90;;;;;;4960839;28;88750;-77
2023/01/29 09:51:58;;;;;;;23.88;18.60;;;7.90;99.90;;;;;;4960438;28;89197;-77
2023/01/29 09:54:30;;;;;;;29.05;22.45;;;7.90;99.90;;;;;;4960799;28;88526;-77
2023/01/29 09:56:59;;;;;;;22.42;18.52;;;7.90;99.90;;;;;;4960286;28;89812;-77
2023/01/29 09:59:30;;;;;;;25.52;18.20;;;7.90;99.90;;;;;;4959262;28;89475;-77
2023/01/29 10:02:16;;;;;;;25.30;18.67;;;7.90;99.90;;;;;;4959818;28;89181;-77
2023/01/29 10:04:51;;;;;;;25.10;19.75;;;8.00;99.90;;;;;;4942841;28;91154;-77
2023/01/29 10:07:43;;;;;;;24.73;18.85;;;8.10;99.90;;;;;;4960797;28;88461;-77
2023/01/29 10:10:23;;;;;;;25.67;18.73;;;8.10;99.90;;;;;;4958819;28;89517;-77
2023/01/29 10:13:19;;;;;;;28.42;20.35;;;8.10;99.90;;;;;;4959043;28;88846;-77
2023/01/29 10:15:59;;;;;;;24.58;18.88;;;8.20;99.90;;;;;;4959071;28;90034;-77
2023/01/29 10:18:26;;;;;;;25.50;18.83;;;8.10;99.90;;;;;;4960041;28;88889;-77
2023/01/29 10:21:27;;;;;;;29.23;20.30;;;8.10;99.90;;;;;;4958626;28;91242;-77
2023/01/29 10:24:06;;;;;;;24.35;18.38;;;8.20;99.90;;;;;;4959569;28;88976;-77
2023/01/29 10:26:34;;;;;;;24.35;19.00;;;8.10;99.90;;;;;;4958620;28;91004;-77
2023/01/29 10:29:06;;;;;;;27.35;19.48;;;8.10;99.90;;;;;;4960177;28;88987;-77
2023/01/29 10:31:38;;;;;;;27.02;21.42;;;8.10;99.90;;;;;;4958749;28;92499;-77
2023/01/29 10:34:13;;;;;;;29.45;21.35;;;8.10;99.90;;;;;;4960090;28;89073;-77
2023/01/29 10:36:43;;;;;;;25.98;19.45;;;8.20;99.90;;;;;;4960250;28;88971;-77
2023/01/29 10:39:18;;;;;;;26.85;19.55;;;8.20;99.90;;;;;;4958502;28;89049;-77
2023/01/29 10:42:05;;;;;;;24.38;19.08;;;8.20;99.90;;;;;;4959731;28;89411;-77
2023/01/29 10:45:16;;;;;;;26.95;20.30;;;8.30;99.90;;;;;;4959902;28;88520;-77
2023/01/29 10:48:03;;;;;;;26.23;19.98;;;8.20;99.90;;;;;;4938008;28;88761;-77
2023/01/29 10:51:00;;;;;;;27.33;20.70;;;8.20;99.90;;;;;;4938038;28;89438;-77
2023/01/29 10:53:43;;;;;;;26.70;18.70;;;8.20;99.90;;;;;;4957045;28;89459;-77
2023/01/29 10:56:22;;;;;;;26.13;20.98;;;8.10;99.90;;;;;;4958176;28;90414;-77
2023/01/29 10:59:02;;;;;;;29.05;21.67;;;8.10;99.90;;;;;;4959794;28;88794;-77
2023/01/29 11:01:29;;;;;;;24.23;18.15;;;8.10;99.90;;;;;;4959754;28;88778;-77
2023/01/29 11:04:00;;;;;;;27.48;20.25;;;8.20;99.90;;;;;;4942164;28;92066;-77
2023/01/29 11:06:31;;;;;;;29.20;20.98;;;8.30;99.90;;;;;;4959651;28;89329;-77
2023/01/29 11:09:31;;;;;;;26.58;20.88;;;8.30;99.90;;;;;;4942181;28;89806;-77
2023/01/29 11:12:20;;;;;;;28.27;21.50;;;8.40;99.90;;;;;;4959787;28;88881;-77
2023/01/29 11:14:58;;;;;;;26.30;20.70;;;8.30;99.90;;;;;;4958410;28;91028;-77
2023/01/29 11:17:25;;;;;;;27.65;20.95;;;8.30;99.90;;;;;;4958339;28;88893;-77
2023/01/29 11:19:56;;;;;;;25.95;19.40;;;8.30;99.90;;;;;;4958023;28;88558;-77
2023/01/29 11:22:26;;;;;;;30.98;23.15;;;8.30;99.90;;;;;;4959177;28;88864;-77
2023/01/29 11:25:16;;;;;;;29.00;20.80;;;8.30;99.90;;;;;;4957835;28;91241;-77
2023/01/29 11:27:53;;;;;;;28.15;22.33;;;8.30;99.90;;;;;;4959480;28;89221;-78
2023/01/29 11:30:34;;;;;;;28.38;21.25;;;8.20;99.90;;;;;;4958670;28;88543;-77
2023/01/29 11:33:04;;;;;;;31.75;22.08;;;8.20;99.90;;;;;;4957141;28;93262;-77
2023/01/29 11:35:32;;;;;;;32.17;21.20;;;8.30;99.90;;;;;;4955824;28;94857;-77
2023/01/29 11:38:07;;;;;;;29.27;21.73;;;8.20;99.90;;;;;;4957026;28;92457;-77
2023/01/29 11:40:39;;;;;;;28.42;21.42;;;8.20;99.90;;;;;;4955536;28;92564;-77
2023/01/29 11:43:22;;;;;;;29.27;22.17;;;8.10;99.90;;;;;;4954523;28;95675;-77
2023/01/29 11:46:03;;;;;;;30.60;21.60;;;8.10;99.90;;;;;;4957043;28;95505;-77
2023/01/29 11:48:45;;;;;;;29.08;20.48;;;8.20;99.90;;;;;;4955789;28;92434;-77
2023/01/29 11:51:24;;;;;;;28.52;22.73;;;8.30;99.90;;;;;;4956495;28;92367;-77
2023/01/29 11:53:58;;;;;;;29.63;21.10;;;8.30;99.90;;;;;;4955806;28;93370;-77
2023/01/29 11:56:45;;;;;;;33.72;23.48;;;8.30;99.90;;;;;;4956614;28;93111;-77
2023/01/29 11:59:32;;;;;;;29.45;22.10;;;8.30;99.90;;;;;;4955429;28;92503;-77
2023/01/29 12:02:26;;;;;;;31.27;24.25;;;8.30;99.90;;;;;;4955875;28;91718;-77
2023/01/29 12:04:55;;;;;;;32.47;23.83;;;8.20;99.90;;;;;;4955733;28;93448;-77
2023/01/29 12:07:22;;;;;;;31.55;23.17;;;8.00;99.90;;;;;;4955009;28;99674;-77
2023/01/29 12:09:57;;;;;;;30.60;24.17;;;8.00;99.90;;;;;;4937992;28;95570;-77
2023/01/29 12:12:33;;;;;;;32.60;23.20;;;8.00;99.90;;;;;;4955173;28;92534;-77
2023/01/29 12:15:17;;;;;;;33.95;24.10;;;8.00;99.90;;;;;;4955686;28;93262;-77
2023/01/29 12:17:51;;;;;;;33.72;24.00;;;8.00;99.90;;;;;;4956779;28;92913;-77
2023/01/29 12:20:25;;;;;;;30.95;22.33;;;8.00;99.90;;;;;;4956664;28;92814;-77
2023/01/29 12:23:03;;;;;;;30.73;23.27;;;8.00;99.90;;;;;;4956618;28;92370;-77
2023/01/29 12:25:45;;;;;;;33.90;24.88;;;8.00;99.90;;;;;;4956209;28;93369;-77
2023/01/29 12:28:48;;;;;;;32.13;23.67;;;8.00;99.90;;;;;;4955470;28;93441;-77
2023/01/29 12:31:21;;;;;;;34.05;25.48;;;8.10;99.90;;;;;;4956155;28;92398;-77
2023/01/29 12:33:54;;;;;;;31.02;22.83;;;8.10;99.90;;;;;;4956290;28;92427;-77
2023/01/29 12:36:39;;;;;;;29.70;22.08;;;8.20;99.90;;;;;;4954650;28;95376;-77
2023/01/29 12:39:15;;;;;;;31.48;24.08;;;8.30;99.90;;;;;;4954788;28;95733;-77
2023/01/29 12:41:48;;;;;;;35.33;24.40;;;8.30;99.90;;;;;;4954945;28;92495;-77
2023/01/29 12:44:21;;;;;;;29.08;21.35;;;8.30;99.90;;;;;;4954684;28;92479;-77
2023/01/29 12:46:58;;;;;;;31.40;24.65;;;8.30;99.90;;;;;;4954518;28;95885;-77
2023/01/29 12:49:29;;;;;;;31.77;23.50;;;8.30;99.90;;;;;;4954362;28;96012;-77
2023/01/29 12:51:59;;;;;;;30.92;23.45;;;8.30;99.90;;;;;;4955724;28;92442;-77
2023/01/29 12:54:42;;;;;;;31.38;23.27;;;8.30;99.90;;;;;;4956298;28;91667;-77
2023/01/29 12:57:47;;;;;;;33.40;24.13;;;8.30;99.90;;;;;;4954153;28;95853;-77
2023/01/29 13:00:21;;;;;;;30.20;23.67;;;8.30;99.90;;;;;;4939485;28;93066;-77
2023/01/29 13:02:51;;;;;;;;;;;8.20;99.90;;;;;;4955332;28;94835;-77
2023/01/29 13:05:32;;;;;;;32.22;22.08;;;8.20;99.90;;;;;;4956582;28;92472;-77
2023/01/29 13:08:17;;;;;;;28.25;20.00;;;8.20;99.90;;;;;;4938118;28;95799;-77
2023/01/29 13:10:49;;;;;;;29.42;19.80;;;8.30;99.90;;;;;;4955219;28;93230;-77
2023/01/29 13:13:43;;;;;;;28.27;20.80;;;8.30;99.90;;;;;;4955637;28;92343;-77
2023/01/29 13:16:14;;;;;;;28.40;18.63;;;8.30;99.90;;;;;;4956203;28;93046;-78
2023/01/29 13:18:48;;;;;;;25.98;19.50;;;8.30;99.90;;;;;;4955904;28;93160;-77
2023/01/29 13:21:18;;;;;;;25.38;18.65;;;8.30;99.90;;;;;;4955831;28;93086;-77
2023/01/29 13:23:52;;;;;;;25.73;18.15;;;8.30;99.90;;;;;;4954726;28;92504;-77
2023/01/29 13:26:20;;;;;;;24.40;18.02;;;8.20;99.90;;;;;;4954198;28;93014;-77
2023/01/29 13:28:50;;;;;;;22.60;16.85;;;8.20;99.90;;;;;;4937070;28;95684;-78
2023/01/29 13:31:27;;;;;;;25.00;19.17;;;8.20;99.90;;;;;;4953526;28;96496;-78
2023/01/29 13:34:30;;;;;;;26.25;18.90;;;8.30;99.90;;;;;;4954418;28;92410;-77
2023/01/29 13:37:01;;;;;;;28.13;19.08;;;8.40;99.90;;;;;;4954382;28;92977;-77
2023/01/29 13:39:36;;;;;;;20.10;15.95;;;8.30;99.90;;;;;;4954222;28;93078;-78
2023/01/29 13:42:16;;;;;;;24.02;17.13;;;8.40;99.90;;;;;;4955647;28;92946;-78
2023/01/29 13:44:59;;;;;;;22.40;17.17;;;8.40;99.90;;;;;;4956121;28;92378;-77
2023/01/29 13:47:30;;;;;;;23.50;17.80;;;8.40;99.90;;;;;;4938407;28;91852;-77